Taylorsport, Kentucky
Current Conditions -  °F | °C
As of 11:03 AM on Wednesday 22 Oct 2014 (Local Time) from KCVG Reporting Station
Broken Clouds Broken Clouds  
Wind Chill: 50°   Ceiling: 2800
Heat Index: 50°   Visibility: 10mi
Dew Point: 39°   Wind: 7mph
Humidity: 66%   Direction: 10°N
Pressure: 30.29"   Gusts: NA
Location:  39.0882°N, 84.7043°W
Report Text: KCVG 221503Z 01006KT 10SM FEW023 BKN028 10/04 A3029 RMK AO2
Loading
Personal Weather Stations






























Interactive Weather Map
Tropical Storm Tracking
New forecast layout! Learn more

10-Day Weather Forecast

Advertisements
Track Severe Weather on mobile